sensor_id;sensor_type;location;lat;lon;timestamp;temperature;humidity
26103;DHT22;32703;49.182;9.042;2022-08-05T00:01:41;23.20;73.90
26103;DHT22;32703;49.182;9.042;2022-08-05T00:04:06;23.20;74.00
26103;DHT22;32703;49.182;9.042;2022-08-05T00:06:32;23.20;74.00
26103;DHT22;32703;49.182;9.042;2022-08-05T00:08:58;23.10;74.20
26103;DHT22;32703;49.182;9.042;2022-08-05T00:11:27;23.10;74.50
26103;DHT22;32703;49.182;9.042;2022-08-05T00:13:53;23.00;74.60
26103;DHT22;32703;49.182;9.042;2022-08-05T00:16:18;23.00;74.70
26103;DHT22;32703;49.182;9.042;2022-08-05T00:18:46;23.00;74.70
26103;DHT22;32703;49.182;9.042;2022-08-05T00:21:13;22.90;74.60
26103;DHT22;32703;49.182;9.042;2022-08-05T00:23:39;22.90;74.50
26103;DHT22;32703;49.182;9.042;2022-08-05T00:26:06;22.90;74.40
26103;DHT22;32703;49.182;9.042;2022-08-05T00:28:33;22.90;74.00
26103;DHT22;32703;49.182;9.042;2022-08-05T00:30:59;22.90;73.50
26103;DHT22;32703;49.182;9.042;2022-08-05T00:33:24;23.00;73.10
26103;DHT22;32703;49.182;9.042;2022-08-05T00:35:50;23.00;71.90
26103;DHT22;32703;49.182;9.042;2022-08-05T00:38:15;23.20;69.70
26103;DHT22;32703;49.182;9.042;2022-08-05T00:40:49;23.20;68.80
26103;DHT22;32703;49.182;9.042;2022-08-05T00:43:15;23.50;68.90
26103;DHT22;32703;49.182;9.042;2022-08-05T00:45:41;23.70;69.00
26103;DHT22;32703;49.182;9.042;2022-08-05T00:48:10;23.90;68.90
26103;DHT22;32703;49.182;9.042;2022-08-05T00:50:37;24.00;68.80
26103;DHT22;32703;49.182;9.042;2022-08-05T00:53:02;24.20;69.90
26103;DHT22;32703;49.182;9.042;2022-08-05T00:55:28;24.30;70.20
26103;DHT22;32703;49.182;9.042;2022-08-05T00:57:54;24.40;70.60
26103;DHT22;32703;49.182;9.042;2022-08-05T01:00:19;24.40;70.60
26103;DHT22;32703;49.182;9.042;2022-08-05T01:02:45;24.50;70.70
26103;DHT22;32703;49.182;9.042;2022-08-05T01:05:10;24.60;70.80
26103;DHT22;32703;49.182;9.042;2022-08-05T01:07:37;24.70;70.90
26103;DHT22;32703;49.182;9.042;2022-08-05T01:10:03;24.70;71.00
26103;DHT22;32703;49.182;9.042;2022-08-05T01:12:30;24.70;71.10
26103;DHT22;32703;49.182;9.042;2022-08-05T01:15:05;24.70;71.10
26103;DHT22;32703;49.182;9.042;2022-08-05T01:17:38;24.80;71.40
26103;DHT22;32703;49.182;9.042;2022-08-05T01:20:33;24.80;71.90
26103;DHT22;32703;49.182;9.042;2022-08-05T01:25:34;24.90;72.80
26103;DHT22;32703;49.182;9.042;2022-08-05T01:30:35;25.00;73.50
26103;DHT22;32703;49.182;9.042;2022-08-05T01:33:05;25.00;73.80
26103;DHT22;32703;49.182;9.042;2022-08-05T01:35:33;25.00;74.00
26103;DHT22;32703;49.182;9.042;2022-08-05T01:38:01;25.10;74.60
26103;DHT22;32703;49.182;9.042;2022-08-05T01:40:29;25.00;74.70
26103;DHT22;32703;49.182;9.042;2022-08-05T01:42:58;25.00;75.20
26103;DHT22;32703;49.182;9.042;2022-08-05T01:45:25;25.00;75.40
26103;DHT22;32703;49.182;9.042;2022-08-05T01:47:53;25.10;75.70
26103;DHT22;32703;49.182;9.042;2022-08-05T01:50:24;25.10;75.60
26103;DHT22;32703;49.182;9.042;2022-08-05T01:52:52;25.00;75.50
26103;DHT22;32703;49.182;9.042;2022-08-05T01:55:21;25.00;75.60
26103;DHT22;32703;49.182;9.042;2022-08-05T01:57:51;25.00;75.70
26103;DHT22;32703;49.182;9.042;2022-08-05T02:00:18;25.00;75.90
26103;DHT22;32703;49.182;9.042;2022-08-05T02:03:11;25.00;76.10
26103;DHT22;32703;49.182;9.042;2022-08-05T02:05:39;24.90;76.30
26103;DHT22;32703;49.182;9.042;2022-08-05T02:08:05;24.90;76.40
26103;DHT22;32703;49.182;9.042;2022-08-05T02:10:39;24.80;76.40
26103;DHT22;32703;49.182;9.042;2022-08-05T02:13:14;24.80;76.60
26103;DHT22;32703;49.182;9.042;2022-08-05T02:15:49;24.70;76.70
26103;DHT22;32703;49.182;9.042;2022-08-05T02:18:35;24.70;76.70
26103;DHT22;32703;49.182;9.042;2022-08-05T02:21:08;24.70;76.90
26103;DHT22;32703;49.182;9.042;2022-08-05T02:23:41;24.60;76.90
26103;DHT22;32703;49.182;9.042;2022-08-05T02:26:09;24.60;77.00
26103;DHT22;32703;49.182;9.042;2022-08-05T02:28:38;24.50;77.10
26103;DHT22;32703;49.182;9.042;2022-08-05T02:31:06;24.50;77.20
26103;DHT22;32703;49.182;9.042;2022-08-05T02:33:39;24.40;77.00
26103;DHT22;32703;49.182;9.042;2022-08-05T02:36:09;24.30;77.50
26103;DHT22;32703;49.182;9.042;2022-08-05T02:38:36;24.20;78.50
26103;DHT22;32703;49.182;9.042;2022-08-05T02:41:05;24.10;79.10
26103;DHT22;32703;49.182;9.042;2022-08-05T02:43:32;23.90;79.50
26103;DHT22;32703;49.182;9.042;2022-08-05T02:45:59;23.90;80.00
26103;DHT22;32703;49.182;9.042;2022-08-05T02:48:26;23.80;80.50
26103;DHT22;32703;49.182;9.042;2022-08-05T02:50:52;23.70;80.70
26103;DHT22;32703;49.182;9.042;2022-08-05T02:53:19;23.60;80.90
26103;DHT22;32703;49.182;9.042;2022-08-05T02:55:47;23.60;81.30
26103;DHT22;32703;49.182;9.042;2022-08-05T02:58:15;23.50;81.50
26103;DHT22;32703;49.182;9.042;2022-08-05T03:00:43;23.50;81.30
26103;DHT22;32703;49.182;9.042;2022-08-05T03:03:15;23.50;81.50
26103;DHT22;32703;49.182;9.042;2022-08-05T03:05:41;23.50;82.20
26103;DHT22;32703;49.182;9.042;2022-08-05T03:08:08;23.40;83.10
26103;DHT22;32703;49.182;9.042;2022-08-05T03:10:34;23.40;83.60
26103;DHT22;32703;49.182;9.042;2022-08-05T03:13:00;23.30;83.90
26103;DHT22;32703;49.182;9.042;2022-08-05T03:15:26;23.30;84.20
26103;DHT22;32703;49.182;9.042;2022-08-05T03:17:52;23.20;83.90
26103;DHT22;32703;49.182;9.042;2022-08-05T03:20:18;23.30;84.50
26103;DHT22;32703;49.182;9.042;2022-08-05T03:22:44;23.30;85.00
26103;DHT22;32703;49.182;9.042;2022-08-05T03:25:10;23.30;85.00
26103;DHT22;32703;49.182;9.042;2022-08-05T03:27:36;23.30;84.90
26103;DHT22;32703;49.182;9.042;2022-08-05T03:30:02;23.30;84.80
26103;DHT22;32703;49.182;9.042;2022-08-05T03:32:27;23.30;85.10
26103;DHT22;32703;49.182;9.042;2022-08-05T03:34:53;23.30;85.20
26103;DHT22;32703;49.182;9.042;2022-08-05T03:37:19;23.30;85.70
26103;DHT22;32703;49.182;9.042;2022-08-05T03:39:58;23.30;87.00
26103;DHT22;32703;49.182;9.042;2022-08-05T03:42:24;23.20;86.60
26103;DHT22;32703;49.182;9.042;2022-08-05T03:44:50;23.20;86.80
26103;DHT22;32703;49.182;9.042;2022-08-05T03:47:15;23.20;87.40
26103;DHT22;32703;49.182;9.042;2022-08-05T03:49:41;23.10;87.80
26103;DHT22;32703;49.182;9.042;2022-08-05T03:52:09;23.00;88.10
26103;DHT22;32703;49.182;9.042;2022-08-05T03:55:06;23.00;88.40
26103;DHT22;32703;49.182;9.042;2022-08-05T03:57:31;22.90;88.80
26103;DHT22;32703;49.182;9.042;2022-08-05T04:00:07;22.90;89.30
26103;DHT22;32703;49.182;9.042;2022-08-05T04:02:43;22.80;89.50
26103;DHT22;32703;49.182;9.042;2022-08-05T04:05:10;22.80;89.70
26103;DHT22;32703;49.182;9.042;2022-08-05T04:07:38;22.80;90.00
26103;DHT22;32703;49.182;9.042;2022-08-05T04:10:04;22.70;90.10
26103;DHT22;32703;49.182;9.042;2022-08-05T04:12:31;22.70;90.40
26103;DHT22;32703;49.182;9.042;2022-08-05T04:14:58;22.70;90.80
26103;DHT22;32703;49.182;9.042;2022-08-05T04:17:24;22.70;91.00
26103;DHT22;32703;49.182;9.042;2022-08-05T04:19:49;22.70;91.40
26103;DHT22;32703;49.182;9.042;2022-08-05T04:22:15;22.70;91.90
26103;DHT22;32703;49.182;9.042;2022-08-05T04:24:42;22.70;92.20
26103;DHT22;32703;49.182;9.042;2022-08-05T04:27:08;22.80;92.50
26103;DHT22;32703;49.182;9.042;2022-08-05T04:29:34;22.70;92.60
26103;DHT22;32703;49.182;9.042;2022-08-05T04:32:00;22.80;92.70
26103;DHT22;32703;49.182;9.042;2022-08-05T04:34:25;22.90;92.60
26103;DHT22;32703;49.182;9.042;2022-08-05T04:36:51;22.90;92.50
26103;DHT22;32703;49.182;9.042;2022-08-05T04:39:17;23.00;92.40
26103;DHT22;32703;49.182;9.042;2022-08-05T04:41:43;23.10;92.20
26103;DHT22;32703;49.182;9.042;2022-08-05T04:44:09;23.10;92.10
26103;DHT22;32703;49.182;9.042;2022-08-05T04:46:37;23.20;92.20
26103;DHT22;32703;49.182;9.042;2022-08-05T04:49:03;23.20;92.30
26103;DHT22;32703;49.182;9.042;2022-08-05T04:51:28;23.30;92.20
26103;DHT22;32703;49.182;9.042;2022-08-05T04:53:54;23.30;92.20
26103;DHT22;32703;49.182;9.042;2022-08-05T04:56:19;23.40;92.10
26103;DHT22;32703;49.182;9.042;2022-08-05T04:58:45;23.50;92.10
26103;DHT22;32703;49.182;9.042;2022-08-05T05:01:10;23.50;92.20
26103;DHT22;32703;49.182;9.042;2022-08-05T05:03:36;23.60;92.20
26103;DHT22;32703;49.182;9.042;2022-08-05T05:06:02;23.60;92.30
26103;DHT22;32703;49.182;9.042;2022-08-05T05:08:27;23.60;91.70
26103;DHT22;32703;49.182;9.042;2022-08-05T05:10:53;23.70;91.40
26103;DHT22;32703;49.182;9.042;2022-08-05T05:13:20;23.80;91.20
26103;DHT22;32703;49.182;9.042;2022-08-05T05:15:46;23.90;90.90
26103;DHT22;32703;49.182;9.042;2022-08-05T05:18:15;24.00;90.60
26103;DHT22;32703;49.182;9.042;2022-08-05T05:20:45;24.10;90.10
26103;DHT22;32703;49.182;9.042;2022-08-05T05:23:11;24.30;89.40
26103;DHT22;32703;49.182;9.042;2022-08-05T05:25:40;24.40;88.80
26103;DHT22;32703;49.182;9.042;2022-08-05T05:28:05;24.40;88.10
26103;DHT22;32703;49.182;9.042;2022-08-05T05:30:31;24.50;87.80
26103;DHT22;32703;49.182;9.042;2022-08-05T05:32:58;24.60;87.70
26103;DHT22;32703;49.182;9.042;2022-08-05T05:35:23;24.60;87.80
26103;DHT22;32703;49.182;9.042;2022-08-05T05:37:55;24.60;87.80
26103;DHT22;32703;49.182;9.042;2022-08-05T05:40:23;24.60;88.10
26103;DHT22;32703;49.182;9.042;2022-08-05T05:42:49;24.60;88.30
26103;DHT22;32703;49.182;9.042;2022-08-05T05:45:16;24.70;88.80
26103;DHT22;32703;49.182;9.042;2022-08-05T05:47:42;24.60;89.40
26103;DHT22;32703;49.182;9.042;2022-08-05T05:50:09;24.70;89.70
26103;DHT22;32703;49.182;9.042;2022-08-05T05:52:35;24.80;89.30
26103;DHT22;32703;49.182;9.042;2022-08-05T05:55:05;24.80;87.80
26103;DHT22;32703;49.182;9.042;2022-08-05T05:57:34;24.80;87.20
26103;DHT22;32703;49.182;9.042;2022-08-05T05:59:59;24.70;87.50
26103;DHT22;32703;49.182;9.042;2022-08-05T06:02:25;24.70;87.70
26103;DHT22;32703;49.182;9.042;2022-08-05T06:04:51;24.60;87.40
26103;DHT22;32703;49.182;9.042;2022-08-05T06:07:16;24.60;87.60
26103;DHT22;32703;49.182;9.042;2022-08-05T06:09:42;24.60;87.80
26103;DHT22;32703;49.182;9.042;2022-08-05T06:12:08;24.70;87.90
26103;DHT22;32703;49.182;9.042;2022-08-05T06:14:33;24.70;87.50
26103;DHT22;32703;49.182;9.042;2022-08-05T06:16:59;24.90;86.80
26103;DHT22;32703;49.182;9.042;2022-08-05T06:19:28;25.10;85.80
26103;DHT22;32703;49.182;9.042;2022-08-05T06:21:53;25.30;85.00
26103;DHT22;32703;49.182;9.042;2022-08-05T06:24:19;25.50;83.80
26103;DHT22;32703;49.182;9.042;2022-08-05T06:26:45;25.60;82.20
26103;DHT22;32703;49.182;9.042;2022-08-05T06:29:11;25.80;82.10
26103;DHT22;32703;49.182;9.042;2022-08-05T06:31:37;25.90;81.90
26103;DHT22;32703;49.182;9.042;2022-08-05T06:34:03;25.90;79.60
26103;DHT22;32703;49.182;9.042;2022-08-05T06:36:29;25.90;79.40
26103;DHT22;32703;49.182;9.042;2022-08-05T06:38:55;25.80;79.90
26103;DHT22;32703;49.182;9.042;2022-08-05T06:41:20;25.60;80.60
26103;DHT22;32703;49.182;9.042;2022-08-05T06:43:47;25.40;82.40
26103;DHT22;32703;49.182;9.042;2022-08-05T06:46:13;25.10;83.60
26103;DHT22;32703;49.182;9.042;2022-08-05T06:48:38;24.80;85.50
26103;DHT22;32703;49.182;9.042;2022-08-05T06:51:04;24.60;87.20
26103;DHT22;32703;49.182;9.042;2022-08-05T06:53:30;24.30;88.40
26103;DHT22;32703;49.182;9.042;2022-08-05T06:55:57;24.20;89.10
26103;DHT22;32703;49.182;9.042;2022-08-05T06:58:23;24.10;89.10
26103;DHT22;32703;49.182;9.042;2022-08-05T07:00:49;24.10;89.10
26103;DHT22;32703;49.182;9.042;2022-08-05T07:03:15;24.20;88.90
26103;DHT22;32703;49.182;9.042;2022-08-05T07:05:40;24.20;88.70
26103;DHT22;32703;49.182;9.042;2022-08-05T07:08:06;24.30;88.70
26103;DHT22;32703;49.182;9.042;2022-08-05T07:10:32;24.40;89.40
26103;DHT22;32703;49.182;9.042;2022-08-05T07:12:57;24.40;89.70
26103;DHT22;32703;49.182;9.042;2022-08-05T07:15:41;24.40;89.90
26103;DHT22;32703;49.182;9.042;2022-08-05T07:18:25;24.40;90.00
26103;DHT22;32703;49.182;9.042;2022-08-05T07:20:51;24.40;89.30
26103;DHT22;32703;49.182;9.042;2022-08-05T07:23:16;24.50;88.40
26103;DHT22;32703;49.182;9.042;2022-08-05T07:25:42;24.60;88.00
26103;DHT22;32703;49.182;9.042;2022-08-05T07:28:08;24.70;87.30
26103;DHT22;32703;49.182;9.042;2022-08-05T07:30:34;25.10;86.30
26103;DHT22;32703;49.182;9.042;2022-08-05T07:33:01;25.50;85.40
26103;DHT22;32703;49.182;9.042;2022-08-05T07:35:27;25.90;83.60
26103;DHT22;32703;49.182;9.042;2022-08-05T07:37:53;26.40;81.50
26103;DHT22;32703;49.182;9.042;2022-08-05T07:40:18;26.80;80.50
26103;DHT22;32703;49.182;9.042;2022-08-05T07:42:44;27.10;77.70
26103;DHT22;32703;49.182;9.042;2022-08-05T07:45:09;27.30;76.10
26103;DHT22;32703;49.182;9.042;2022-08-05T07:47:35;27.50;75.30
26103;DHT22;32703;49.182;9.042;2022-08-05T07:50:00;27.70;73.60
26103;DHT22;32703;49.182;9.042;2022-08-05T07:52:26;27.70;72.10
26103;DHT22;32703;49.182;9.042;2022-08-05T07:54:52;27.80;72.10
26103;DHT22;32703;49.182;9.042;2022-08-05T07:57:17;28.00;71.70
26103;DHT22;32703;49.182;9.042;2022-08-05T07:59:43;28.20;70.80
26103;DHT22;32703;49.182;9.042;2022-08-05T08:02:09;28.40;70.90
26103;DHT22;32703;49.182;9.042;2022-08-05T08:04:35;28.70;69.20
26103;DHT22;32703;49.182;9.042;2022-08-05T08:07:01;28.90;67.30
26103;DHT22;32703;49.182;9.042;2022-08-05T08:09:29;29.10;66.20
26103;DHT22;32703;49.182;9.042;2022-08-05T08:11:54;29.30;65.90
26103;DHT22;32703;49.182;9.042;2022-08-05T08:14:20;29.50;65.20
26103;DHT22;32703;49.182;9.042;2022-08-05T08:16:46;29.60;63.60
26103;DHT22;32703;49.182;9.042;2022-08-05T08:19:11;29.80;63.00
26103;DHT22;32703;49.182;9.042;2022-08-05T08:21:37;30.00;62.50
26103;DHT22;32703;49.182;9.042;2022-08-05T08:24:02;30.20;61.70
26103;DHT22;32703;49.182;9.042;2022-08-05T08:26:30;30.40;60.50
26103;DHT22;32703;49.182;9.042;2022-08-05T08:28:58;30.60;59.30
26103;DHT22;32703;49.182;9.042;2022-08-05T08:31:23;30.70;59.00
26103;DHT22;32703;49.182;9.042;2022-08-05T08:33:49;30.90;58.90
26103;DHT22;32703;49.182;9.042;2022-08-05T08:36:14;30.90;58.30
26103;DHT22;32703;49.182;9.042;2022-08-05T08:38:40;31.00;58.00
26103;DHT22;32703;49.182;9.042;2022-08-05T08:41:09;30.90;58.10
26103;DHT22;32703;49.182;9.042;2022-08-05T08:43:35;30.90;58.40
26103;DHT22;32703;49.182;9.042;2022-08-05T08:46:03;30.80;58.30
26103;DHT22;32703;49.182;9.042;2022-08-05T08:48:30;30.90;58.30
26103;DHT22;32703;49.182;9.042;2022-08-05T08:50:57;31.30;57.90
26103;DHT22;32703;49.182;9.042;2022-08-05T08:53:26;31.80;56.90
26103;DHT22;32703;49.182;9.042;2022-08-05T08:55:53;32.20;56.30
26103;DHT22;32703;49.182;9.042;2022-08-05T08:58:21;32.50;55.20
26103;DHT22;32703;49.182;9.042;2022-08-05T09:00:47;32.80;54.70
26103;DHT22;32703;49.182;9.042;2022-08-05T09:03:13;33.00;54.00
26103;DHT22;32703;49.182;9.042;2022-08-05T09:05:38;33.10;52.50
26103;DHT22;32703;49.182;9.042;2022-08-05T09:08:04;33.30;52.20
26103;DHT22;32703;49.182;9.042;2022-08-05T09:10:30;33.60;51.70
26103;DHT22;32703;49.182;9.042;2022-08-05T09:12:56;33.80;50.90
26103;DHT22;32703;49.182;9.042;2022-08-05T09:15:22;34.10;50.40
26103;DHT22;32703;49.182;9.042;2022-08-05T09:17:48;34.20;49.90
26103;DHT22;32703;49.182;9.042;2022-08-05T09:20:14;34.50;48.50
26103;DHT22;32703;49.182;9.042;2022-08-05T09:23:10;34.40;48.40
26103;DHT22;32703;49.182;9.042;2022-08-05T09:25:41;34.20;47.80
26103;DHT22;32703;49.182;9.042;2022-08-05T09:28:26;33.90;48.10
26103;DHT22;32703;49.182;9.042;2022-08-05T09:31:00;33.50;48.70
26103;DHT22;32703;49.182;9.042;2022-08-05T09:33:29;33.30;49.30
26103;DHT22;32703;49.182;9.042;2022-08-05T09:36:03;33.20;49.50
26103;DHT22;32703;49.182;9.042;2022-08-05T09:38:29;33.00;49.60
26103;DHT22;32703;49.182;9.042;2022-08-05T09:41:02;32.90;50.10
26103;DHT22;32703;49.182;9.042;2022-08-05T09:43:33;32.90;49.20
26103;DHT22;32703;49.182;9.042;2022-08-05T09:45:59;32.90;49.00
26103;DHT22;32703;49.182;9.042;2022-08-05T09:50:57;33.60;47.90
26103;DHT22;32703;49.182;9.042;2022-08-05T09:53:23;33.90;47.60
26103;DHT22;32703;49.182;9.042;2022-08-05T09:55:59;34.30;46.70
26103;DHT22;32703;49.182;9.042;2022-08-05T09:58:26;34.80;46.60
26103;DHT22;32703;49.182;9.042;2022-08-05T10:01:04;35.10;45.40
26103;DHT22;32703;49.182;9.042;2022-08-05T10:03:30;35.30;44.70
26103;DHT22;32703;49.182;9.042;2022-08-05T10:06:03;35.30;44.50
26103;DHT22;32703;49.182;9.042;2022-08-05T10:08:29;35.20;44.80
26103;DHT22;32703;49.182;9.042;2022-08-05T10:10:55;35.00;45.40
26103;DHT22;32703;49.182;9.042;2022-08-05T10:13:34;35.00;45.80
26103;DHT22;32703;49.182;9.042;2022-08-05T10:16:04;35.10;44.80
26103;DHT22;32703;49.182;9.042;2022-08-05T10:18:31;35.40;44.50
26103;DHT22;32703;49.182;9.042;2022-08-05T10:21:03;35.40;42.80
26103;DHT22;32703;49.182;9.042;2022-08-05T10:23:34;35.60;43.10
26103;DHT22;32703;49.182;9.042;2022-08-05T10:26:03;35.60;40.90
26103;DHT22;32703;49.182;9.042;2022-08-05T10:28:30;35.40;41.40
26103;DHT22;32703;49.182;9.042;2022-08-05T10:30:57;35.20;42.30
26103;DHT22;32703;49.182;9.042;2022-08-05T10:33:25;35.30;42.20
26103;DHT22;32703;49.182;9.042;2022-08-05T10:35:52;35.40;41.60
26103;DHT22;32703;49.182;9.042;2022-08-05T10:38:20;35.30;41.70
26103;DHT22;32703;49.182;9.042;2022-08-05T10:43:32;35.40;42.20
26103;DHT22;32703;49.182;9.042;2022-08-05T10:46:03;35.70;42.20
26103;DHT22;32703;49.182;9.042;2022-08-05T10:48:36;36.00;41.80
26103;DHT22;32703;49.182;9.042;2022-08-05T10:53:50;36.50;41.30
26103;DHT22;32703;49.182;9.042;2022-08-05T10:56:20;36.60;39.90
26103;DHT22;32703;49.182;9.042;2022-08-05T11:01:27;36.50;40.20
26103;DHT22;32703;49.182;9.042;2022-08-05T11:06:36;36.60;39.50
26103;DHT22;32703;49.182;9.042;2022-08-05T11:09:22;36.40;40.50
26103;DHT22;32703;49.182;9.042;2022-08-05T11:11:49;36.40;40.50
26103;DHT22;32703;49.182;9.042;2022-08-05T11:14:23;36.50;40.80
26103;DHT22;32703;49.182;9.042;2022-08-05T11:19:50;37.20;39.20
26103;DHT22;32703;49.182;9.042;2022-08-05T11:22:41;37.70;38.70
26103;DHT22;32703;49.182;9.042;2022-08-05T11:25:25;37.80;38.30
26103;DHT22;32703;49.182;9.042;2022-08-05T11:27:51;37.50;38.40
26103;DHT22;32703;49.182;9.042;2022-08-05T11:30:17;36.90;38.80
26103;DHT22;32703;49.182;9.042;2022-08-05T11:32:42;36.10;40.20
26103;DHT22;32703;49.182;9.042;2022-08-05T11:38:12;35.10;42.20
26103;DHT22;32703;49.182;9.042;2022-08-05T11:41:00;34.90;41.70
26103;DHT22;32703;49.182;9.042;2022-08-05T11:43:28;34.60;42.50
26103;DHT22;32703;49.182;9.042;2022-08-05T11:45:54;34.60;43.00
26103;DHT22;32703;49.182;9.042;2022-08-05T11:48:20;34.60;42.80
26103;DHT22;32703;49.182;9.042;2022-08-05T11:50:47;34.80;42.60
26103;DHT22;32703;49.182;9.042;2022-08-05T11:53:13;35.00;42.10
26103;DHT22;32703;49.182;9.042;2022-08-05T11:55:56;35.30;41.60
26103;DHT22;32703;49.182;9.042;2022-08-05T11:58:28;35.50;41.70
26103;DHT22;32703;49.182;9.042;2022-08-05T12:06:12;36.20;40.30
26103;DHT22;32703;49.182;9.042;2022-08-05T12:08:42;36.00;39.70
26103;DHT22;32703;49.182;9.042;2022-08-05T12:11:09;35.90;40.40
26103;DHT22;32703;49.182;9.042;2022-08-05T12:13:36;35.70;40.80
26103;DHT22;32703;49.182;9.042;2022-08-05T12:16:04;35.50;41.00
26103;DHT22;32703;49.182;9.042;2022-08-05T12:18:33;35.50;40.80
26103;DHT22;32703;49.182;9.042;2022-08-05T12:21:13;35.50;41.10
26103;DHT22;32703;49.182;9.042;2022-08-05T12:23:38;35.40;41.10
26103;DHT22;32703;49.182;9.042;2022-08-05T12:26:07;35.40;41.30
26103;DHT22;32703;49.182;9.042;2022-08-05T12:28:36;35.30;41.30
26103;DHT22;32703;49.182;9.042;2022-08-05T12:31:03;35.40;41.50
26103;DHT22;32703;49.182;9.042;2022-08-05T12:33:29;35.40;41.30
26103;DHT22;32703;49.182;9.042;2022-08-05T12:35:55;35.30;41.30
26103;DHT22;32703;49.182;9.042;2022-08-05T12:38:22;35.30;41.90
26103;DHT22;32703;49.182;9.042;2022-08-05T12:40:49;35.10;41.60
26103;DHT22;32703;49.182;9.042;2022-08-05T12:43:14;34.80;42.00
26103;DHT22;32703;49.182;9.042;2022-08-05T12:45:58;34.60;42.70
26103;DHT22;32703;49.182;9.042;2022-08-05T12:48:23;34.70;42.90
26103;DHT22;32703;49.182;9.042;2022-08-05T12:51:09;34.90;42.50
26103;DHT22;32703;49.182;9.042;2022-08-05T12:53:43;35.00;42.20
26103;DHT22;32703;49.182;9.042;2022-08-05T12:56:21;35.10;41.70
26103;DHT22;32703;49.182;9.042;2022-08-05T12:59:11;35.00;42.10
26103;DHT22;32703;49.182;9.042;2022-08-05T13:01:44;34.90;42.10
26103;DHT22;32703;49.182;9.042;2022-08-05T13:04:10;34.90;42.70
26103;DHT22;32703;49.182;9.042;2022-08-05T13:06:40;34.90;42.70
26103;DHT22;32703;49.182;9.042;2022-08-05T13:09:09;34.90;42.70
26103;DHT22;32703;49.182;9.042;2022-08-05T13:11:43;34.70;43.20
26103;DHT22;32703;49.182;9.042;2022-08-05T13:14:20;34.50;43.40
26103;DHT22;32703;49.182;9.042;2022-08-05T13:16:48;34.30;44.00
26103;DHT22;32703;49.182;9.042;2022-08-05T13:19:13;34.10;44.70
26103;DHT22;32703;49.182;9.042;2022-08-05T13:21:39;34.00;44.90
26103;DHT22;32703;49.182;9.042;2022-08-05T13:24:05;33.80;45.20
26103;DHT22;32703;49.182;9.042;2022-08-05T13:26:31;33.50;46.10
26103;DHT22;32703;49.182;9.042;2022-08-05T13:28:57;33.20;46.90
26103;DHT22;32703;49.182;9.042;2022-08-05T13:31:23;32.90;47.90
26103;DHT22;32703;49.182;9.042;2022-08-05T13:33:48;32.60;49.00
26103;DHT22;32703;49.182;9.042;2022-08-05T13:36:14;32.50;49.90
26103;DHT22;32703;49.182;9.042;2022-08-05T13:38:40;32.40;49.80
26103;DHT22;32703;49.182;9.042;2022-08-05T13:41:05;32.10;51.00
26103;DHT22;32703;49.182;9.042;2022-08-05T13:43:31;31.90;51.60
26103;DHT22;32703;49.182;9.042;2022-08-05T13:45:56;31.70;52.20
26103;DHT22;32703;49.182;9.042;2022-08-05T13:48:22;31.60;52.90
26103;DHT22;32703;49.182;9.042;2022-08-05T13:50:47;31.50;53.30
26103;DHT22;32703;49.182;9.042;2022-08-05T13:53:13;31.40;54.10
26103;DHT22;32703;49.182;9.042;2022-08-05T13:55:39;31.20;55.60
26103;DHT22;32703;49.182;9.042;2022-08-05T13:58:04;31.10;55.00
26103;DHT22;32703;49.182;9.042;2022-08-05T14:00:30;31.00;55.70
26103;DHT22;32703;49.182;9.042;2022-08-05T14:02:56;30.80;55.50
26103;DHT22;32703;49.182;9.042;2022-08-05T14:05:21;30.70;55.50
26103;DHT22;32703;49.182;9.042;2022-08-05T14:07:47;30.60;55.60
26103;DHT22;32703;49.182;9.042;2022-08-05T14:10:15;30.60;56.30
26103;DHT22;32703;49.182;9.042;2022-08-05T14:12:42;30.60;56.50
26103;DHT22;32703;49.182;9.042;2022-08-05T14:15:10;30.60;56.10
26103;DHT22;32703;49.182;9.042;2022-08-05T14:17:36;30.60;56.30
26103;DHT22;32703;49.182;9.042;2022-08-05T14:20:03;30.60;56.40
26103;DHT22;32703;49.182;9.042;2022-08-05T14:22:30;30.50;56.60
26103;DHT22;32703;49.182;9.042;2022-08-05T14:24:56;30.40;56.50
26103;DHT22;32703;49.182;9.042;2022-08-05T14:27:21;30.30;56.70
26103;DHT22;32703;49.182;9.042;2022-08-05T14:29:47;30.20;57.00
26103;DHT22;32703;49.182;9.042;2022-08-05T14:32:12;30.10;57.40
26103;DHT22;32703;49.182;9.042;2022-08-05T14:34:39;30.10;57.80
26103;DHT22;32703;49.182;9.042;2022-08-05T14:37:04;30.00;58.20
26103;DHT22;32703;49.182;9.042;2022-08-05T14:39:31;30.00;58.30
26103;DHT22;32703;49.182;9.042;2022-08-05T14:41:56;30.00;58.30
26103;DHT22;32703;49.182;9.042;2022-08-05T14:44:22;30.10;58.40
26103;DHT22;32703;49.182;9.042;2022-08-05T14:46:48;30.10;58.60
26103;DHT22;32703;49.182;9.042;2022-08-05T14:49:13;30.00;58.60
26103;DHT22;32703;49.182;9.042;2022-08-05T14:51:39;30.00;58.80
26103;DHT22;32703;49.182;9.042;2022-08-05T14:54:06;30.10;58.80
26103;DHT22;32703;49.182;9.042;2022-08-05T14:56:32;30.10;58.60
26103;DHT22;32703;49.182;9.042;2022-08-05T14:58:58;30.10;58.20
26103;DHT22;32703;49.182;9.042;2022-08-05T15:01:24;30.20;57.80
26103;DHT22;32703;49.182;9.042;2022-08-05T15:03:50;30.10;58.20
26103;DHT22;32703;49.182;9.042;2022-08-05T15:06:15;30.10;57.70
26103;DHT22;32703;49.182;9.042;2022-08-05T15:08:41;30.00;57.80
26103;DHT22;32703;49.182;9.042;2022-08-05T15:11:07;29.90;58.10
26103;DHT22;32703;49.182;9.042;2022-08-05T15:13:33;29.90;58.60
26103;DHT22;32703;49.182;9.042;2022-08-05T15:15:59;29.80;58.90
26103;DHT22;32703;49.182;9.042;2022-08-05T15:18:24;29.80;58.90
26103;DHT22;32703;49.182;9.042;2022-08-05T15:20:50;29.80;59.10
26103;DHT22;32703;49.182;9.042;2022-08-05T15:23:16;29.70;59.20
26103;DHT22;32703;49.182;9.042;2022-08-05T15:25:41;29.60;58.80
26103;DHT22;32703;49.182;9.042;2022-08-05T15:28:07;29.60;58.90
26103;DHT22;32703;49.182;9.042;2022-08-05T15:30:33;29.70;58.60
26103;DHT22;32703;49.182;9.042;2022-08-05T15:33:01;29.60;58.30
26103;DHT22;32703;49.182;9.042;2022-08-05T15:35:27;29.60;58.50
26103;DHT22;32703;49.182;9.042;2022-08-05T15:37:55;29.60;58.50
26103;DHT22;32703;49.182;9.042;2022-08-05T15:40:22;29.50;58.40
26103;DHT22;32703;49.182;9.042;2022-08-05T15:42:47;29.40;58.20
26103;DHT22;32703;49.182;9.042;2022-08-05T15:45:13;29.30;58.60
26103;DHT22;32703;49.182;9.042;2022-08-05T15:47:40;29.20;59.70
26103;DHT22;32703;49.182;9.042;2022-08-05T15:50:07;29.10;59.30
26103;DHT22;32703;49.182;9.042;2022-08-05T15:52:33;29.10;59.60
26103;DHT22;32703;49.182;9.042;2022-08-05T15:55:03;29.00;59.90
26103;DHT22;32703;49.182;9.042;2022-08-05T15:57:28;29.00;60.10
26103;DHT22;32703;49.182;9.042;2022-08-05T15:59:54;28.90;60.20
26103;DHT22;32703;49.182;9.042;2022-08-05T16:02:20;28.80;61.10
26103;DHT22;32703;49.182;9.042;2022-08-05T16:04:46;28.70;60.30